sensor_id;sensor_type;location;lat;lon;timestamp;pressure;altitude;pressure_sealevel;temperature;humidity
64139;BME280;50435;43.700;-79.318;2023-05-24T00:00:33;100594.19;;;20.14;27.21
64139;BME280;50435;43.700;-79.318;2023-05-24T00:03:00;100591.19;;;20.12;27.20
64139;BME280;50435;43.700;-79.318;2023-05-24T00:05:28;100593.98;;;19.28;27.35
64139;BME280;50435;43.700;-79.318;2023-05-24T00:07:56;100591.13;;;20.15;27.50
64139;BME280;50435;43.700;-79.318;2023-05-24T00:10:23;100593.65;;;19.51;27.67
64139;BME280;50435;43.700;-79.318;2023-05-24T00:12:51;100599.48;;;19.64;27.71
64139;BME280;50435;43.700;-79.318;2023-05-24T00:15:18;100599.42;;;19.12;27.81
64139;BME280;50435;43.700;-79.318;2023-05-24T00:17:46;100599.88;;;19.46;27.87
64139;BME280;50435;43.700;-79.318;2023-05-24T00:20:13;100595.62;;;17.94;27.99
64139;BME280;50435;43.700;-79.318;2023-05-24T00:22:42;100591.14;;;19.34;28.07
64139;BME280;50435;43.700;-79.318;2023-05-24T00:25:10;100586.32;;;18.39;28.06
64139;BME280;50435;43.700;-79.318;2023-05-24T00:27:37;100580.70;;;19.11;28.30
64139;BME280;50435;43.700;-79.318;2023-05-24T00:30:06;100576.61;;;18.91;28.26
64139;BME280;50435;43.700;-79.318;2023-05-24T00:32:34;100573.63;;;19.48;28.45
64139;BME280;50435;43.700;-79.318;2023-05-24T00:35:01;100570.24;;;19.07;28.57
64139;BME280;50435;43.700;-79.318;2023-05-24T00:37:29;100576.20;;;19.26;28.64
64139;BME280;50435;43.700;-79.318;2023-05-24T00:39:56;100579.33;;;18.90;28.75
64139;BME280;50435;43.700;-79.318;2023-05-24T00:42:24;100579.82;;;18.44;28.97
64139;BME280;50435;43.700;-79.318;2023-05-24T00:44:52;100578.31;;;18.94;28.99
64139;BME280;50435;43.700;-79.318;2023-05-24T00:47:19;100575.77;;;18.31;29.14
64139;BME280;50435;43.700;-79.318;2023-05-24T00:49:47;100571.78;;;18.70;29.28
64139;BME280;50435;43.700;-79.318;2023-05-24T00:52:14;100570.82;;;17.85;29.35
64139;BME280;50435;43.700;-79.318;2023-05-24T00:54:43;100574.02;;;18.58;29.39
64139;BME280;50435;43.700;-79.318;2023-05-24T00:57:11;100574.09;;;17.28;29.52
64139;BME280;50435;43.700;-79.318;2023-05-24T00:59:39;100572.84;;;18.49;29.46
64139;BME280;50435;43.700;-79.318;2023-05-24T01:02:06;100573.10;;;17.95;29.54
64139;BME280;50435;43.700;-79.318;2023-05-24T01:04:34;100575.74;;;18.32;29.64
64139;BME280;50435;43.700;-79.318;2023-05-24T01:07:09;100576.46;;;18.68;29.59
64139;BME280;50435;43.700;-79.318;2023-05-24T01:09:51;100575.00;;;18.41;29.88
64139;BME280;50435;43.700;-79.318;2023-05-24T01:12:27;100574.53;;;17.77;30.07
64139;BME280;50435;43.700;-79.318;2023-05-24T01:15:03;100573.21;;;18.44;30.11
64139;BME280;50435;43.700;-79.318;2023-05-24T01:17:38;100574.38;;;18.41;30.14
64139;BME280;50435;43.700;-79.318;2023-05-24T01:20:09;100574.26;;;17.25;30.32
64139;BME280;50435;43.700;-79.318;2023-05-24T01:23:14;100575.49;;;18.28;30.30
64139;BME280;50435;43.700;-79.318;2023-05-24T01:25:54;100578.56;;;17.86;30.46
64139;BME280;50435;43.700;-79.318;2023-05-24T01:28:27;100584.99;;;17.50;30.56
64139;BME280;50435;43.700;-79.318;2023-05-24T01:30:55;100587.20;;;17.91;30.72
64139;BME280;50435;43.700;-79.318;2023-05-24T01:33:23;100585.99;;;17.33;30.75
64139;BME280;50435;43.700;-79.318;2023-05-24T01:35:51;100589.18;;;17.66;30.73
64139;BME280;50435;43.700;-79.318;2023-05-24T01:38:19;100590.92;;;17.34;30.81
64139;BME280;50435;43.700;-79.318;2023-05-24T01:40:51;100595.27;;;17.68;31.08
64139;BME280;50435;43.700;-79.318;2023-05-24T01:43:30;100593.96;;;17.07;31.17
64139;BME280;50435;43.700;-79.318;2023-05-24T01:46:04;100591.90;;;17.68;31.05
64139;BME280;50435;43.700;-79.318;2023-05-24T01:48:44;100594.71;;;17.26;31.17
64139;BME280;50435;43.700;-79.318;2023-05-24T01:51:18;100593.61;;;15.91;31.16
64139;BME280;50435;43.700;-79.318;2023-05-24T01:53:49;100590.70;;;17.42;31.40
64139;BME280;50435;43.700;-79.318;2023-05-24T01:56:19;100585.91;;;15.95;31.51
64139;BME280;50435;43.700;-79.318;2023-05-24T01:58:46;100583.04;;;17.14;31.80
64139;BME280;50435;43.700;-79.318;2023-05-24T02:01:17;100584.66;;;15.91;31.66
64139;BME280;50435;43.700;-79.318;2023-05-24T02:03:45;100584.30;;;17.27;31.73
64139;BME280;50435;43.700;-79.318;2023-05-24T02:06:12;100582.94;;;15.79;31.54
64139;BME280;50435;43.700;-79.318;2023-05-24T02:08:41;100583.20;;;17.13;31.80
64139;BME280;50435;43.700;-79.318;2023-05-24T02:11:08;100583.73;;;15.98;32.00
64139;BME280;50435;43.700;-79.318;2023-05-24T02:13:35;100583.08;;;17.12;32.17
64139;BME280;50435;43.700;-79.318;2023-05-24T02:16:03;100583.63;;;17.27;31.85
64139;BME280;50435;43.700;-79.318;2023-05-24T02:18:31;100579.17;;;17.06;32.14
64139;BME280;50435;43.700;-79.318;2023-05-24T02:20:58;100578.01;;;17.15;32.23
64139;BME280;50435;43.700;-79.318;2023-05-24T02:23:26;100581.58;;;16.83;32.19
64139;BME280;50435;43.700;-79.318;2023-05-24T02:25:53;100576.78;;;16.94;32.47
64139;BME280;50435;43.700;-79.318;2023-05-24T02:28:21;100583.47;;;16.65;32.27
64139;BME280;50435;43.700;-79.318;2023-05-24T02:30:48;100588.85;;;16.85;32.71
64139;BME280;50435;43.700;-79.318;2023-05-24T02:33:16;100593.12;;;14.98;32.62
64139;BME280;50435;43.700;-79.318;2023-05-24T02:35:43;100597.96;;;16.58;32.66
64139;BME280;50435;43.700;-79.318;2023-05-24T02:38:11;100594.86;;;15.60;32.70
64139;BME280;50435;43.700;-79.318;2023-05-24T02:40:38;100584.15;;;16.67;32.61
64139;BME280;50435;43.700;-79.318;2023-05-24T02:43:06;100583.29;;;16.10;33.04
64139;BME280;50435;43.700;-79.318;2023-05-24T02:45:34;100581.50;;;16.60;33.06
64139;BME280;50435;43.700;-79.318;2023-05-24T02:48:01;100582.03;;;16.72;32.83
64139;BME280;50435;43.700;-79.318;2023-05-24T02:50:29;100584.63;;;16.40;33.28
64139;BME280;50435;43.700;-79.318;2023-05-24T02:52:56;100582.84;;;16.30;33.34
64139;BME280;50435;43.700;-79.318;2023-05-24T02:55:23;100576.59;;;15.89;33.32
64139;BME280;50435;43.700;-79.318;2023-05-24T02:57:51;100576.39;;;16.28;33.78
64139;BME280;50435;43.700;-79.318;2023-05-24T03:00:19;100573.30;;;15.43;33.12
64139;BME280;50435;43.700;-79.318;2023-05-24T03:02:47;100575.79;;;16.40;33.36
64139;BME280;50435;43.700;-79.318;2023-05-24T03:05:14;100573.90;;;15.09;33.59
64139;BME280;50435;43.700;-79.318;2023-05-24T03:07:42;100573.85;;;16.49;33.53
64139;BME280;50435;43.700;-79.318;2023-05-24T03:10:10;100573.28;;;15.30;33.67
64139;BME280;50435;43.700;-79.318;2023-05-24T03:12:38;100568.79;;;16.04;33.59
64139;BME280;50435;43.700;-79.318;2023-05-24T03:15:07;100566.17;;;15.97;33.53
64139;BME280;50435;43.700;-79.318;2023-05-24T03:17:34;100566.09;;;16.08;33.92
64139;BME280;50435;43.700;-79.318;2023-05-24T03:20:02;100567.97;;;16.01;34.27
64139;BME280;50435;43.700;-79.318;2023-05-24T03:22:30;100562.59;;;16.20;34.13
64139;BME280;50435;43.700;-79.318;2023-05-24T03:24:57;100562.65;;;15.98;34.03
64139;BME280;50435;43.700;-79.318;2023-05-24T03:27:25;100563.53;;;15.68;34.10
64139;BME280;50435;43.700;-79.318;2023-05-24T03:29:53;100559.47;;;16.21;33.97
64139;BME280;50435;43.700;-79.318;2023-05-24T03:32:21;100561.25;;;15.52;34.17
64139;BME280;50435;43.700;-79.318;2023-05-24T03:34:48;100558.92;;;15.89;34.33
64139;BME280;50435;43.700;-79.318;2023-05-24T03:37:16;100558.16;;;14.70;34.49
64139;BME280;50435;43.700;-79.318;2023-05-24T03:39:44;100558.98;;;15.53;34.58
64139;BME280;50435;43.700;-79.318;2023-05-24T03:42:11;100555.31;;;14.57;34.32
64139;BME280;50435;43.700;-79.318;2023-05-24T03:44:39;100553.03;;;16.13;34.45
64139;BME280;50435;43.700;-79.318;2023-05-24T03:47:07;100548.16;;;15.28;34.89
64139;BME280;50435;43.700;-79.318;2023-05-24T03:49:34;100545.20;;;15.73;34.69
64139;BME280;50435;43.700;-79.318;2023-05-24T03:52:02;100538.21;;;15.48;34.81
64139;BME280;50435;43.700;-79.318;2023-05-24T03:54:30;100536.35;;;15.43;35.10
64139;BME280;50435;43.700;-79.318;2023-05-24T03:56:58;100535.39;;;15.39;34.99
64139;BME280;50435;43.700;-79.318;2023-05-24T03:59:25;100532.94;;;15.15;34.62
64139;BME280;50435;43.700;-79.318;2023-05-24T04:01:52;100527.13;;;15.49;35.05
64139;BME280;50435;43.700;-79.318;2023-05-24T04:04:20;100524.25;;;15.20;35.16
64139;BME280;50435;43.700;-79.318;2023-05-24T04:06:47;100519.82;;;15.65;35.31
64139;BME280;50435;43.700;-79.318;2023-05-24T04:09:15;100515.43;;;15.09;35.09
64139;BME280;50435;43.700;-79.318;2023-05-24T04:11:42;100517.49;;;15.47;34.94
64139;BME280;50435;43.700;-79.318;2023-05-24T04:14:10;100518.78;;;13.90;35.58
64139;BME280;50435;43.700;-79.318;2023-05-24T04:16:38;100520.94;;;15.14;35.58
64139;BME280;50435;43.700;-79.318;2023-05-24T04:19:05;100517.52;;;14.76;35.64
64139;BME280;50435;43.700;-79.318;2023-05-24T04:21:34;100520.97;;;15.32;35.61
64139;BME280;50435;43.700;-79.318;2023-05-24T04:24:02;100519.31;;;15.05;35.59
64139;BME280;50435;43.700;-79.318;2023-05-24T04:26:30;100518.73;;;15.07;35.87
64139;BME280;50435;43.700;-79.318;2023-05-24T04:28:57;100518.43;;;15.23;35.48
64139;BME280;50435;43.700;-79.318;2023-05-24T04:31:25;100512.88;;;14.84;35.81
64139;BME280;50435;43.700;-79.318;2023-05-24T04:33:53;100514.04;;;15.28;35.61
64139;BME280;50435;43.700;-79.318;2023-05-24T04:36:21;100511.04;;;14.59;35.84
64139;BME280;50435;43.700;-79.318;2023-05-24T04:38:48;100510.12;;;15.00;36.01
64139;BME280;50435;43.700;-79.318;2023-05-24T04:41:16;100511.24;;;14.24;35.95
64139;BME280;50435;43.700;-79.318;2023-05-24T04:43:44;100514.22;;;14.99;36.06
64139;BME280;50435;43.700;-79.318;2023-05-24T04:46:12;100515.43;;;13.53;35.88
64139;BME280;50435;43.700;-79.318;2023-05-24T04:48:39;100511.07;;;14.61;36.15
64139;BME280;50435;43.700;-79.318;2023-05-24T04:51:07;100509.35;;;13.86;36.08
64139;BME280;50435;43.700;-79.318;2023-05-24T04:53:35;100506.64;;;14.87;35.70
64139;BME280;50435;43.700;-79.318;2023-05-24T04:56:02;100509.12;;;14.85;35.76
64139;BME280;50435;43.700;-79.318;2023-05-24T04:58:30;100510.65;;;14.81;35.37
64139;BME280;50435;43.700;-79.318;2023-05-24T05:00:57;100511.01;;;14.80;35.40
64139;BME280;50435;43.700;-79.318;2023-05-24T05:03:25;100511.38;;;14.39;35.50
64139;BME280;50435;43.700;-79.318;2023-05-24T05:05:52;100511.59;;;15.25;35.62
64139;BME280;50435;43.700;-79.318;2023-05-24T05:08:20;100511.17;;;14.50;35.59
64139;BME280;50435;43.700;-79.318;2023-05-24T05:10:47;100504.03;;;14.60;35.76
64139;BME280;50435;43.700;-79.318;2023-05-24T05:13:15;100501.96;;;13.69;35.52
64139;BME280;50435;43.700;-79.318;2023-05-24T05:15:43;100502.88;;;14.79;35.63
64139;BME280;50435;43.700;-79.318;2023-05-24T05:18:10;100501.74;;;13.68;35.43
64139;BME280;50435;43.700;-79.318;2023-05-24T05:20:37;100501.20;;;14.56;35.61
64139;BME280;50435;43.700;-79.318;2023-05-24T05:23:05;100499.28;;;14.19;35.45
64139;BME280;50435;43.700;-79.318;2023-05-24T05:25:33;100497.27;;;14.29;35.48
64139;BME280;50435;43.700;-79.318;2023-05-24T05:28:01;100499.01;;;14.91;35.31
64139;BME280;50435;43.700;-79.318;2023-05-24T05:30:28;100489.40;;;14.49;35.48
64139;BME280;50435;43.700;-79.318;2023-05-24T05:32:55;100485.13;;;14.50;35.53
64139;BME280;50435;43.700;-79.318;2023-05-24T05:35:23;100481.11;;;14.14;35.66
64139;BME280;50435;43.700;-79.318;2023-05-24T05:37:51;100478.92;;;14.52;35.55
64139;BME280;50435;43.700;-79.318;2023-05-24T05:40:19;100480.05;;;14.08;35.45
64139;BME280;50435;43.700;-79.318;2023-05-24T05:42:46;100482.08;;;14.64;35.65
64139;BME280;50435;43.700;-79.318;2023-05-24T05:45:14;100479.21;;;13.59;35.77
64139;BME280;50435;43.700;-79.318;2023-05-24T05:47:41;100476.90;;;14.30;35.99
64139;BME280;50435;43.700;-79.318;2023-05-24T05:50:09;100468.95;;;13.29;36.07
64139;BME280;50435;43.700;-79.318;2023-05-24T05:52:37;100469.59;;;14.31;36.02
64139;BME280;50435;43.700;-79.318;2023-05-24T05:55:05;100472.27;;;14.27;35.88
64139;BME280;50435;43.700;-79.318;2023-05-24T05:57:33;100463.98;;;14.09;35.97
64139;BME280;50435;43.700;-79.318;2023-05-24T06:00:01;100459.98;;;14.51;36.01
64139;BME280;50435;43.700;-79.318;2023-05-24T06:02:28;100460.91;;;14.12;36.29
64139;BME280;50435;43.700;-79.318;2023-05-24T06:04:56;100454.74;;;14.60;36.17
64139;BME280;50435;43.700;-79.318;2023-05-24T06:07:23;100447.82;;;13.55;36.34
64139;BME280;50435;43.700;-79.318;2023-05-24T06:09:51;100444.18;;;14.39;36.29
64139;BME280;50435;43.700;-79.318;2023-05-24T06:12:18;100438.86;;;13.50;36.48
64139;BME280;50435;43.700;-79.318;2023-05-24T06:14:46;100437.57;;;14.19;36.41
64139;BME280;50435;43.700;-79.318;2023-05-24T06:17:14;100434.48;;;12.83;36.92
64139;BME280;50435;43.700;-79.318;2023-05-24T06:19:41;100435.44;;;14.25;36.86
64139;BME280;50435;43.700;-79.318;2023-05-24T06:22:09;100431.92;;;12.87;36.56
64139;BME280;50435;43.700;-79.318;2023-05-24T06:24:36;100428.68;;;14.39;36.85
64139;BME280;50435;43.700;-79.318;2023-05-24T06:27:04;100423.49;;;14.09;36.75
64139;BME280;50435;43.700;-79.318;2023-05-24T06:29:32;100421.04;;;13.67;37.03
64139;BME280;50435;43.700;-79.318;2023-05-24T06:31:59;100414.72;;;14.03;36.85
64139;BME280;50435;43.700;-79.318;2023-05-24T06:34:27;100411.00;;;13.45;37.15
64139;BME280;50435;43.700;-79.318;2023-05-24T06:36:54;100417.28;;;14.20;37.15
64139;BME280;50435;43.700;-79.318;2023-05-24T06:39:21;100415.34;;;13.63;36.99
64139;BME280;50435;43.700;-79.318;2023-05-24T06:41:49;100415.72;;;13.79;37.08
64139;BME280;50435;43.700;-79.318;2023-05-24T06:44:17;100407.88;;;12.57;36.95
64139;BME280;50435;43.700;-79.318;2023-05-24T06:46:44;100407.00;;;13.87;37.19
64139;BME280;50435;43.700;-79.318;2023-05-24T06:49:12;100406.14;;;12.61;37.41
64139;BME280;50435;43.700;-79.318;2023-05-24T06:51:40;100402.67;;;13.85;37.29
64139;BME280;50435;43.700;-79.318;2023-05-24T06:54:08;100402.36;;;12.89;37.39
64139;BME280;50435;43.700;-79.318;2023-05-24T06:56:35;100395.69;;;13.77;37.60
64139;BME280;50435;43.700;-79.318;2023-05-24T06:59:03;100396.78;;;13.81;37.62
64139;BME280;50435;43.700;-79.318;2023-05-24T07:01:31;100395.76;;;13.33;37.26
64139;BME280;50435;43.700;-79.318;2023-05-24T07:03:58;100392.34;;;13.78;37.64
64139;BME280;50435;43.700;-79.318;2023-05-24T07:06:26;100395.89;;;13.64;37.54
64139;BME280;50435;43.700;-79.318;2023-05-24T07:08:54;100395.14;;;13.87;37.17
64139;BME280;50435;43.700;-79.318;2023-05-24T07:11:21;100394.86;;;13.55;37.44
64139;BME280;50435;43.700;-79.318;2023-05-24T07:13:49;100397.17;;;13.70;37.29
64139;BME280;50435;43.700;-79.318;2023-05-24T07:16:17;100394.68;;;13.03;37.00
64139;BME280;50435;43.700;-79.318;2023-05-24T07:18:44;100399.68;;;13.92;37.28
64139;BME280;50435;43.700;-79.318;2023-05-24T07:21:12;100399.23;;;12.53;37.23
64139;BME280;50435;43.700;-79.318;2023-05-24T07:23:39;100397.29;;;13.85;37.35
64139;BME280;50435;43.700;-79.318;2023-05-24T07:26:07;100396.21;;;12.97;37.19
64139;BME280;50435;43.700;-79.318;2023-05-24T07:28:34;100395.26;;;13.92;37.26
64139;BME280;50435;43.700;-79.318;2023-05-24T07:31:02;100395.17;;;13.72;37.58
64139;BME280;50435;43.700;-79.318;2023-05-24T07:33:29;100405.54;;;13.76;37.80
64139;BME280;50435;43.700;-79.318;2023-05-24T07:35:57;100441.03;;;13.92;37.88
64139;BME280;50435;43.700;-79.318;2023-05-24T07:38:25;100442.30;;;13.62;37.79
64139;BME280;50435;43.700;-79.318;2023-05-24T07:40:53;100430.55;;;13.59;37.67
64139;BME280;50435;43.700;-79.318;2023-05-24T07:43:20;100438.37;;;13.10;37.69
64139;BME280;50435;43.700;-79.318;2023-05-24T07:45:47;100440.78;;;13.52;37.75
64139;BME280;50435;43.700;-79.318;2023-05-24T07:48:14;100436.35;;;12.33;37.39
64139;BME280;50435;43.700;-79.318;2023-05-24T07:50:42;100432.99;;;13.59;37.79
64139;BME280;50435;43.700;-79.318;2023-05-24T07:53:09;100423.66;;;12.58;37.43
64139;BME280;50435;43.700;-79.318;2023-05-24T07:55:36;100422.36;;;13.58;37.54
64139;BME280;50435;43.700;-79.318;2023-05-24T07:58:03;100421.46;;;13.45;37.94
64139;BME280;50435;43.700;-79.318;2023-05-24T08:00:31;100420.08;;;13.50;37.93
64139;BME280;50435;43.700;-79.318;2023-05-24T08:02:59;100416.55;;;13.61;37.73
64139;BME280;50435;43.700;-79.318;2023-05-24T08:05:26;100415.50;;;13.07;37.86
64139;BME280;50435;43.700;-79.318;2023-05-24T08:07:53;100413.33;;;13.48;37.99
64139;BME280;50435;43.700;-79.318;2023-05-24T08:10:21;100414.53;;;12.97;38.15
64139;BME280;50435;43.700;-79.318;2023-05-24T08:12:49;100413.37;;;13.47;37.90
64139;BME280;50435;43.700;-79.318;2023-05-24T08:15:16;100412.61;;;12.41;38.12
64139;BME280;50435;43.700;-79.318;2023-05-24T08:17:45;100408.51;;;13.34;38.26
64139;BME280;50435;43.700;-79.318;2023-05-24T08:20:13;100405.50;;;11.99;38.77
64139;BME280;50435;43.700;-79.318;2023-05-24T08:22:40;100401.67;;;13.74;38.45
64139;BME280;50435;43.700;-79.318;2023-05-24T08:25:09;100402.86;;;12.30;38.60
64139;BME280;50435;43.700;-79.318;2023-05-24T08:27:36;100402.69;;;13.05;38.96
64139;BME280;50435;43.700;-79.318;2023-05-24T08:30:05;100397.32;;;13.29;39.02
64139;BME280;50435;43.700;-79.318;2023-05-24T08:32:32;100395.32;;;13.28;39.04
64139;BME280;50435;43.700;-79.318;2023-05-24T08:35:00;100395.76;;;13.36;38.75
64139;BME280;50435;43.700;-79.318;2023-05-24T08:37:28;100393.28;;;12.92;39.30
64139;BME280;50435;43.700;-79.318;2023-05-24T08:39:56;100390.92;;;13.32;39.21
64139;BME280;50435;43.700;-79.318;2023-05-24T08:42:24;100393.14;;;12.70;38.90
64139;BME280;50435;43.700;-79.318;2023-05-24T08:44:59;100389.21;;;13.30;38.54
64139;BME280;50435;43.700;-79.318;2023-05-24T08:47:30;100383.04;;;13.02;38.75
64139;BME280;50435;43.700;-79.318;2023-05-24T08:49:58;100376.25;;;13.52;38.39
64139;BME280;50435;43.700;-79.318;2023-05-24T08:52:27;100372.35;;;12.85;38.41
64139;BME280;50435;43.700;-79.318;2023-05-24T08:54:57;100368.34;;;13.02;38.77
64139;BME280;50435;43.700;-79.318;2023-05-24T08:57:26;100365.89;;;13.01;38.44
64139;BME280;50435;43.700;-79.318;2023-05-24T08:59:54;100368.12;;;13.15;38.99
64139;BME280;50435;43.700;-79.318;2023-05-24T09:02:22;100365.06;;;12.01;38.69
64139;BME280;50435;43.700;-79.318;2023-05-24T09:04:51;100364.97;;;12.99;38.25
64139;BME280;50435;43.700;-79.318;2023-05-24T09:07:21;100362.48;;;12.75;38.60
64139;BME280;50435;43.700;-79.318;2023-05-24T09:09:55;100360.92;;;13.43;38.32
64139;BME280;50435;43.700;-79.318;2023-05-24T09:12:23;100356.05;;;12.75;38.91
64139;BME280;50435;43.700;-79.318;2023-05-24T09:14:53;100362.02;;;13.22;38.58
64139;BME280;50435;43.700;-79.318;2023-05-24T09:17:21;100367.72;;;12.99;38.62
64139;BME280;50435;43.700;-79.318;2023-05-24T09:19:50;100368.38;;;12.72;39.10
64139;BME280;50435;43.700;-79.318;2023-05-24T09:22:18;100367.95;;;12.62;38.82
64139;BME280;50435;43.700;-79.318;2023-05-24T09:24:49;100373.93;;;13.07;38.83
64139;BME280;50435;43.700;-79.318;2023-05-24T09:27:18;100377.43;;;11.81;38.96
64139;BME280;50435;43.700;-79.318;2023-05-24T09:29:45;100387.13;;;13.13;38.95
64139;BME280;50435;43.700;-79.318;2023-05-24T09:32:13;100394.20;;;11.64;38.77
64139;BME280;50435;43.700;-79.318;2023-05-24T09:34:41;100397.02;;;13.23;39.14
64139;BME280;50435;43.700;-79.318;2023-05-24T09:37:10;100389.33;;;12.03;39.04
64139;BME280;50435;43.700;-79.318;2023-05-24T09:39:38;100396.67;;;13.06;38.94
64139;BME280;50435;43.700;-79.318;2023-05-24T09:42:06;100398.00;;;12.29;39.02
64139;BME280;50435;43.700;-79.318;2023-05-24T09:44:33;100393.55;;;12.65;39.34
64139;BME280;50435;43.700;-79.318;2023-05-24T09:47:02;100392.11;;;13.07;39.36
64139;BME280;50435;43.700;-79.318;2023-05-24T09:49:29;100387.87;;;12.72;39.27
64139;BME280;50435;43.700;-79.318;2023-05-24T09:51:56;100376.67;;;13.24;39.15
64139;BME280;50435;43.700;-79.318;2023-05-24T09:54:24;100371.80;;;12.66;39.36
64139;BME280;50435;43.700;-79.318;2023-05-24T09:56:51;100371.41;;;13.04;39.64
64139;BME280;50435;43.700;-79.318;2023-05-24T09:59:19;100366.16;;;11.99;39.72
64139;BME280;50435;43.700;-79.318;2023-05-24T10:01:47;100366.32;;;12.72;39.51
64139;BME280;50435;43.700;-79.318;2023-05-24T10:04:14;100372.34;;;11.26;39.54
64139;BME280;50435;43.700;-79.318;2023-05-24T10:06:41;100381.88;;;13.09;39.18
64139;BME280;50435;43.700;-79.318;2023-05-24T10:09:10;100377.10;;;11.86;39.22
64139;BME280;50435;43.700;-79.318;2023-05-24T10:11:38;100373.25;;;12.89;39.01
64139;BME280;50435;43.700;-79.318;2023-05-24T10:14:08;100365.69;;;12.41;38.92
64139;BME280;50435;43.700;-79.318;2023-05-24T10:16:36;100364.28;;;13.03;38.69
64139;BME280;50435;43.700;-79.318;2023-05-24T10:19:03;100362.35;;;13.40;38.92
64139;BME280;50435;43.700;-79.318;2023-05-24T10:21:32;100364.39;;;13.00;38.59
64139;BME280;50435;43.700;-79.318;2023-05-24T10:24:03;100370.69;;;12.96;38.80
64139;BME280;50435;43.700;-79.318;2023-05-24T10:26:32;100376.04;;;13.13;38.83
64139;BME280;50435;43.700;-79.318;2023-05-24T10:29:05;100379.46;;;13.50;38.44
64139;BME280;50435;43.700;-79.318;2023-05-24T10:31:37;100384.17;;;12.93;38.67
64139;BME280;50435;43.700;-79.318;2023-05-24T10:34:06;100391.51;;;12.32;40.16
64139;BME280;50435;43.700;-79.318;2023-05-24T10:36:34;100395.39;;;12.15;41.64
64139;BME280;50435;43.700;-79.318;2023-05-24T10:39:02;100398.91;;;12.66;41.79
64139;BME280;50435;43.700;-79.318;2023-05-24T10:41:38;100401.01;;;12.23;42.76
64139;BME280;50435;43.700;-79.318;2023-05-24T10:44:09;100404.81;;;12.08;43.15
64139;BME280;50435;43.700;-79.318;2023-05-24T10:47:01;100406.51;;;12.99;42.67
64139;BME280;50435;43.700;-79.318;2023-05-24T10:49:29;100419.16;;;12.76;42.10
64139;BME280;50435;43.700;-79.318;2023-05-24T10:52:00;100418.51;;;13.27;41.99
64139;BME280;50435;43.700;-79.318;2023-05-24T10:54:28;100421.84;;;12.90;41.78
64139;BME280;50435;43.700;-79.318;2023-05-24T10:57:00;100421.44;;;12.96;41.22
64139;BME280;50435;43.700;-79.318;2023-05-24T10:59:30;100424.98;;;12.94;41.24
64139;BME280;50435;43.700;-79.318;2023-05-24T11:01:59;100426.19;;;13.56;40.21
64139;BME280;50435;43.700;-79.318;2023-05-24T11:04:31;100435.47;;;13.21;39.97
64139;BME280;50435;43.700;-79.318;2023-05-24T11:07:01;100437.59;;;13.21;39.72
64139;BME280;50435;43.700;-79.318;2023-05-24T11:09:29;100439.75;;;13.24;39.48
64139;BME280;50435;43.700;-79.318;2023-05-24T11:12:00;100441.63;;;13.76;39.35
64139;BME280;50435;43.700;-79.318;2023-05-24T11:14:29;100437.62;;;13.31;39.26
64139;BME280;50435;43.700;-79.318;2023-05-24T11:16:57;100435.66;;;13.33;39.22
64139;BME280;50435;43.700;-79.318;2023-05-24T11:19:30;100434.69;;;13.27;38.95
64139;BME280;50435;43.700;-79.318;2023-05-24T11:22:02;100440.83;;;13.98;38.93
64139;BME280;50435;43.700;-79.318;2023-05-24T11:24:29;100446.02;;;13.54;38.90
64139;BME280;50435;43.700;-79.318;2023-05-24T11:26:59;100448.73;;;14.05;38.93
64139;BME280;50435;43.700;-79.318;2023-05-24T11:29:27;100452.82;;;13.36;38.96
64139;BME280;50435;43.700;-79.318;2023-05-24T11:31:55;100467.35;;;13.92;38.83
64139;BME280;50435;43.700;-79.318;2023-05-24T11:34:23;100474.43;;;12.98;38.82
64139;BME280;50435;43.700;-79.318;2023-05-24T11:36:51;100477.88;;;13.95;38.86
64139;BME280;50435;43.700;-79.318;2023-05-24T11:39:19;100475.07;;;13.04;38.68
64139;BME280;50435;43.700;-79.318;2023-05-24T11:41:46;100485.41;;;13.87;38.39
64139;BME280;50435;43.700;-79.318;2023-05-24T11:44:16;100492.00;;;14.01;38.08
64139;BME280;50435;43.700;-79.318;2023-05-24T11:46:45;100486.09;;;13.75;38.11
64139;BME280;50435;43.700;-79.318;2023-05-24T11:49:16;100487.89;;;12.76;37.88
64139;BME280;50435;43.700;-79.318;2023-05-24T11:51:43;100495.17;;;14.34;37.87
64139;BME280;50435;43.700;-79.318;2023-05-24T11:54:11;100495.92;;;13.18;37.98
64139;BME280;50435;43.700;-79.318;2023-05-24T11:56:38;100484.36;;;14.11;38.13
64139;BME280;50435;43.700;-79.318;2023-05-24T11:59:14;100479.90;;;14.10;37.59
64139;BME280;50435;43.700;-79.318;2023-05-24T12:01:42;100487.73;;;14.47;38.19
64139;BME280;50435;43.700;-79.318;2023-05-24T12:04:10;100494.51;;;13.39;38.29
64139;BME280;50435;43.700;-79.318;2023-05-24T12:06:39;100493.64;;;14.59;38.45
64139;BME280;50435;43.700;-79.318;2023-05-24T12:09:08;100494.77;;;13.76;38.18
64139;BME280;50435;43.700;-79.318;2023-05-24T12:11:38;100499.83;;;14.28;37.79
64139;BME280;50435;43.700;-79.318;2023-05-24T12:14:06;100509.32;;;14.44;37.98
64139;BME280;50435;43.700;-79.318;2023-05-24T12:16:35;100513.37;;;14.64;37.42
64139;BME280;50435;43.700;-79.318;2023-05-24T12:19:02;100518.62;;;14.66;38.85
64139;BME280;50435;43.700;-79.318;2023-05-24T12:21:31;100517.80;;;14.71;37.94
64139;BME280;50435;43.700;-79.318;2023-05-24T12:24:07;100519.18;;;15.16;38.92
64139;BME280;50435;43.700;-79.318;2023-05-24T12:26:36;100532.12;;;15.12;37.94
64139;BME280;50435;43.700;-79.318;2023-05-24T12:29:03;100546.39;;;15.24;37.50
64139;BME280;50435;43.700;-79.318;2023-05-24T12:31:31;100551.92;;;14.78;38.26
64139;BME280;50435;43.700;-79.318;2023-05-24T12:33:58;100557.61;;;15.02;38.59
64139;BME280;50435;43.700;-79.318;2023-05-24T12:36:27;100568.55;;;15.03;38.51